createdAt,value
2022-12-22T00:00:05.158Z,98131.94
2022-12-22T00:02:37.703Z,98136.59
2022-12-22T00:05:02.413Z,98127.59
2022-12-22T00:07:23.292Z,98132.50
2022-12-22T00:09:43.866Z,98128.13
2022-12-22T00:12:04.908Z,98116.38
2022-12-22T00:14:27.701Z,98116.66
2022-12-22T00:16:57.822Z,98110.66
2022-12-22T00:19:18.208Z,98105.44
2022-12-22T00:21:41.949Z,98098.09
2022-12-22T00:24:02.513Z,98101.66
2022-12-22T00:26:22.754Z,98100.53
2022-12-22T00:28:42.839Z,98097.28
2022-12-22T00:31:04.205Z,98096.75
2022-12-22T00:33:24.970Z,98095.38
2022-12-22T00:35:45.260Z,98092.91
2022-12-22T00:38:05.559Z,98088.84
2022-12-22T00:40:36.405Z,98088.00
2022-12-22T00:42:56.643Z,98086.91
2022-12-22T00:45:16.593Z,98079.84
2022-12-22T00:47:44.120Z,98075.19
2022-12-22T00:50:07.368Z,98068.91
2022-12-22T00:52:27.593Z,98074.88
2022-12-22T00:54:47.577Z,98070.25
2022-12-22T00:57:07.916Z,98064.78
2022-12-22T00:59:29.672Z,98059.09
2022-12-22T01:01:49.984Z,98047.09
2022-12-22T01:04:10.305Z,98056.63
2022-12-22T01:06:30.777Z,98045.72
2022-12-22T01:08:53.428Z,98055.25
2022-12-22T01:11:13.716Z,98038.56
2022-12-22T01:13:34.888Z,98044.84
2022-12-22T01:15:54.912Z,98041.59
2022-12-22T01:18:15.181Z,98041.59
2022-12-22T01:20:35.656Z,98038.34
2022-12-22T01:22:56.033Z,98027.66
2022-12-22T01:25:16.357Z,98033.41
2022-12-22T01:27:36.755Z,98030.69
2022-12-22T01:29:56.860Z,98035.03
2022-12-22T01:32:20.053Z,98033.94
2022-12-22T01:34:40.123Z,98023.03
2022-12-22T01:37:00.535Z,98019.50
2022-12-22T01:39:21.027Z,98019.25
2022-12-22T01:41:41.519Z,98019.50
2022-12-22T01:44:03.270Z,98014.06
2022-12-22T01:46:54.376Z,98015.97
2022-12-22T01:49:14.661Z,98010.50
2022-12-22T01:51:42.538Z,98006.16
2022-12-22T01:54:03.634Z,97995.81
2022-12-22T01:56:24.609Z,97993.06
2022-12-22T01:58:54.115Z,97985.97
2022-12-22T02:01:16.544Z,97982.16
2022-12-22T02:03:38.903Z,97971.25
2022-12-22T02:06:14.499Z,97982.72
2022-12-22T02:08:54.513Z,97979.97
2022-12-22T02:11:48.775Z,97977.53
2022-12-22T02:14:30.329Z,97981.09
2022-12-22T02:17:12.163Z,97974.28
2022-12-22T02:19:48.302Z,97974.00
2022-12-22T02:22:22.717Z,97979.72
2022-12-22T02:24:53.467Z,97969.63
2022-12-22T02:27:17.574Z,97970.44
2022-12-22T02:29:46.428Z,97966.91
2022-12-22T02:32:06.937Z,97964.16
2022-12-22T02:34:35.163Z,97967.47
2022-12-22T02:37:19.049Z,97962.81
2022-12-22T02:39:54.522Z,97964.47
2022-12-22T02:42:31.863Z,97965.53
2022-12-22T02:45:06.109Z,97962.00
2022-12-22T02:47:42.753Z,97955.19
2022-12-22T02:50:14.824Z,97955.19
2022-12-22T02:52:45.928Z,97949.75
2022-12-22T02:55:06.239Z,97949.47
2022-12-22T02:57:26.489Z,97948.38
2022-12-22T02:59:46.949Z,97940.75
2022-12-22T03:02:10.064Z,97950.00
2022-12-22T03:04:30.251Z,97934.75
2022-12-22T03:06:50.493Z,97935.84
2022-12-22T03:09:10.541Z,97931.47
2022-12-22T03:11:33.005Z,97935.00
2022-12-22T03:13:53.332Z,97922.47
2022-12-22T03:16:13.589Z,97927.66
2022-12-22T03:18:33.648Z,97918.13
2022-12-22T03:20:54.049Z,97904.75
2022-12-22T03:23:14.457Z,97904.47
2022-12-22T03:25:34.743Z,97902.03
2022-12-22T03:27:36.222Z,97901.19
2022-12-22T03:29:37.945Z,97893.28
2022-12-22T03:31:39.925Z,97886.75
2022-12-22T03:33:41.715Z,97886.47
2022-12-22T03:35:44.203Z,97896.84
2022-12-22T03:37:45.808Z,97896.84
2022-12-22T03:39:47.409Z,97885.69
2022-12-22T03:42:07.580Z,97883.75
2022-12-22T03:44:27.931Z,97885.94
2022-12-22T03:46:32.284Z,97881.31
2022-12-22T03:48:33.907Z,97882.13
2022-12-22T03:50:35.755Z,97878.88
2022-12-22T03:52:37.404Z,97867.13
2022-12-22T03:54:39.010Z,97873.41
2022-12-22T03:56:41.243Z,97870.13
2022-12-22T03:58:42.947Z,97868.75
2022-12-22T04:00:44.676Z,97863.56
2022-12-22T04:02:49.333Z,97863.84
2022-12-22T04:04:56.533Z,97852.94
2022-12-22T04:06:58.476Z,97850.75
2022-12-22T04:09:02.403Z,97839.84
2022-12-22T04:11:22.527Z,97846.38
2022-12-22T04:13:24.186Z,97839.56
2022-12-22T04:15:31.890Z,97838.19
2022-12-22T04:17:33.491Z,97835.75
2022-12-22T04:19:37.371Z,97841.75
2022-12-22T04:21:39.040Z,97834.94
2022-12-22T04:23:40.677Z,97832.19
2022-12-22T04:25:42.191Z,97835.22
2022-12-22T04:27:49.795Z,97836.84
2022-12-22T04:29:51.314Z,97834.94
2022-12-22T04:31:53.072Z,97845.56
2022-12-22T04:33:55.663Z,97838.19
2022-12-22T04:35:57.278Z,97832.75
2022-12-22T04:37:58.775Z,97832.19
2022-12-22T04:40:03.552Z,97833.84
2022-12-22T04:42:05.102Z,97832.75
2022-12-22T04:44:06.967Z,97823.47
2022-12-22T04:46:08.564Z,97813.94
2022-12-22T04:48:13.282Z,97816.38
2022-12-22T04:50:15.009Z,97819.66
2022-12-22T04:52:19.773Z,97815.84
2022-12-22T04:54:21.379Z,97819.94
2022-12-22T04:56:23.078Z,97815.31
2022-12-22T04:58:24.818Z,97813.38
2022-12-22T05:00:26.458Z,97810.91
2022-12-22T05:02:28.121Z,97808.72
2022-12-22T05:04:30.370Z,97805.47
2022-12-22T05:06:31.773Z,97813.38
2022-12-22T05:08:33.514Z,97794.84
2022-12-22T05:10:35.330Z,97796.75
2022-12-22T05:12:58.047Z,97797.81
2022-12-22T05:15:00.342Z,97790.75
2022-12-22T05:17:04.766Z,97796.75
2022-12-22T05:19:07.119Z,97792.66
2022-12-22T05:21:15.471Z,97788.84
2022-12-22T05:23:17.048Z,97786.38
2022-12-22T05:25:22.609Z,97785.53
2022-12-22T05:27:24.538Z,97775.47
2022-12-22T05:29:25.960Z,97769.47
2022-12-22T05:31:28.073Z,97778.72
2022-12-22T05:33:29.727Z,97778.47
2022-12-22T05:35:33.609Z,97770.53
2022-12-22T05:37:36.384Z,97775.22
2022-12-22T05:39:37.972Z,97768.94
2022-12-22T05:41:39.536Z,97769.75
2022-12-22T05:43:41.311Z,97765.66
2022-12-22T05:45:45.697Z,97769.19
2022-12-22T05:47:52.744Z,97771.66
2022-12-22T05:49:54.574Z,97775.47
2022-12-22T05:51:56.964Z,97780.91
2022-12-22T05:53:58.807Z,97780.38
2022-12-22T05:56:00.572Z,97776.81
2022-12-22T05:58:02.854Z,97778.19
2022-12-22T06:00:07.010Z,97775.75
2022-12-22T06:02:13.413Z,97779.28
2022-12-22T06:04:17.485Z,97780.09
2022-12-22T06:06:19.647Z,97785.00
2022-12-22T06:08:21.273Z,97775.75
2022-12-22T06:10:22.993Z,97779.28
2022-12-22T06:12:24.686Z,97779.53
2022-12-22T06:14:29.344Z,97772.19
2022-12-22T06:16:33.797Z,97768.63
2022-12-22T06:18:35.438Z,97763.44
2022-12-22T06:20:37.484Z,97770.81
2022-12-22T06:22:41.392Z,97757.16
2022-12-22T06:24:44.066Z,97765.66
2022-12-22T06:26:45.728Z,97768.63
2022-12-22T06:28:48.157Z,97753.63
2022-12-22T06:30:49.986Z,97757.72
2022-12-22T06:32:52.498Z,97747.06
2022-12-22T06:34:54.100Z,97748.69
2022-12-22T06:36:58.263Z,97756.34
2022-12-22T06:38:59.842Z,97757.44
2022-12-22T06:41:01.791Z,97762.91
2022-12-22T06:43:10.308Z,97760.72
2022-12-22T06:45:12.348Z,97751.41
2022-12-22T06:47:13.769Z,97744.56
2022-12-22T06:49:17.493Z,97750.84
2022-12-22T06:51:19.253Z,97752.50
2022-12-22T06:53:20.895Z,97746.75
2022-12-22T06:55:22.607Z,97748.13
2022-12-22T06:57:24.117Z,97748.66
2022-12-22T06:59:27.473Z,97746.50
2022-12-22T07:01:29.515Z,97742.66
2022-12-22T07:03:31.555Z,97748.41
2022-12-22T07:05:36.011Z,97750.31
2022-12-22T07:07:40.589Z,97740.22
2022-12-22T07:09:42.308Z,97742.66
2022-12-22T07:11:44.233Z,97746.75
2022-12-22T07:13:46.306Z,97740.22
2022-12-22T07:15:53.761Z,97737.47
2022-12-22T07:17:58.821Z,97733.38
2022-12-22T07:20:00.439Z,97730.66
2022-12-22T07:22:02.098Z,97730.34
2022-12-22T07:24:03.872Z,97735.56
2022-12-22T07:26:08.048Z,97742.63
2022-12-22T07:28:13.646Z,97739.34
2022-12-22T07:30:18.500Z,97739.34
2022-12-22T07:32:20.575Z,97737.44
2022-12-22T07:34:22.280Z,97729.00
2022-12-22T07:36:23.873Z,97730.66
2022-12-22T07:38:25.613Z,97733.66
2022-12-22T07:40:27.861Z,97732.28
2022-12-22T07:42:47.591Z,97729.28
2022-12-22T07:44:49.245Z,97730.09
2022-12-22T07:46:50.925Z,97729.81
2022-12-22T07:49:11.283Z,97728.72
2022-12-22T07:51:12.890Z,97724.09
2022-12-22T07:53:14.341Z,97721.06
2022-12-22T07:55:16.056Z,97726.22
2022-12-22T07:57:17.630Z,97719.97
2022-12-22T07:59:19.542Z,97715.56
2022-12-22T08:01:21.181Z,97723.78
2022-12-22T08:03:23.024Z,97731.66
2022-12-22T08:05:25.879Z,97723.47
2022-12-22T08:07:30.333Z,97742.03
2022-12-22T08:09:34.308Z,97720.72
2022-12-22T08:11:36.761Z,97712.28
2022-12-22T08:13:38.424Z,97721.53
2022-12-22T08:15:40.296Z,97717.19
2022-12-22T08:17:41.977Z,97717.97
2022-12-22T08:19:43.553Z,97713.63
2022-12-22T08:21:52.116Z,97723.44
2022-12-22T08:23:54.759Z,97712.50
2022-12-22T08:26:05.620Z,97714.97
2022-12-22T08:28:09.711Z,97711.97
2022-12-22T08:30:12.486Z,97708.13
2022-12-22T08:32:14.225Z,97718.78
2022-12-22T08:34:16.567Z,97714.94
2022-12-22T08:36:18.123Z,97713.56
2022-12-22T08:38:22.516Z,97714.09
2022-12-22T08:40:27.924Z,97726.69
2022-12-22T08:42:29.572Z,97717.38
2022-12-22T08:44:31.238Z,97721.19
2022-12-22T08:46:38.319Z,97720.91
2022-12-22T08:48:40.090Z,97715.41
2022-12-22T08:50:41.728Z,97725.78
2022-12-22T08:52:43.383Z,97720.84
2022-12-22T08:54:44.966Z,97723.53
2022-12-22T08:56:49.781Z,97719.13
2022-12-22T08:58:51.350Z,97717.19
2022-12-22T09:00:52.977Z,97711.44
2022-12-22T09:02:54.898Z,97710.56
2022-12-22T09:04:56.600Z,97699.59
2022-12-22T09:07:02.807Z,97726.06
2022-12-22T09:09:06.468Z,97718.38
2022-12-22T09:11:08.314Z,97714.25
2022-12-22T09:13:10.046Z,97707.13
2022-12-22T09:15:11.511Z,97703.53
2022-12-22T09:17:20.827Z,97698.84
2022-12-22T09:19:22.484Z,97698.25
2022-12-22T09:21:25.575Z,97701.22
2022-12-22T09:23:27.754Z,97700.34
2022-12-22T09:25:29.452Z,97707.13
2022-12-22T09:27:33.809Z,97706.28
2022-12-22T09:29:37.053Z,97706.84
2022-12-22T09:31:41.869Z,97703.81
2022-12-22T09:33:47.856Z,97704.88
2022-12-22T09:35:49.630Z,97699.13
2022-12-22T09:37:51.434Z,97702.09
2022-12-22T09:39:53.048Z,97702.31
2022-12-22T09:41:59.096Z,97691.63
2022-12-22T09:44:06.892Z,97704.44
2022-12-22T09:46:22.859Z,97699.22
2022-12-22T09:48:35.992Z,97703.28
2022-12-22T09:50:39.387Z,97697.22
2022-12-22T09:52:46.582Z,97686.81
2022-12-22T09:54:48.134Z,97687.84
2022-12-22T09:56:52.903Z,97680.69
2022-12-22T09:59:01.216Z,97680.09
2022-12-22T10:01:06.006Z,97681.69
2022-12-22T10:03:22.081Z,97674.81
2022-12-22T10:05:56.127Z,97687.38
2022-12-22T10:08:07.623Z,97684.56
2022-12-22T10:10:18.540Z,97691.13
2022-12-22T10:12:25.468Z,97697.34
2022-12-22T10:14:33.597Z,97694.31
2022-12-22T10:16:35.219Z,97688.78
2022-12-22T10:18:36.718Z,97684.03
2022-12-22T10:20:39.930Z,97685.91
2022-12-22T10:23:04.116Z,97684.19
2022-12-22T10:25:26.733Z,97686.06
2022-12-22T10:27:32.683Z,97688.44
2022-12-22T10:29:34.355Z,97684.00
2022-12-22T10:31:54.693Z,97677.91
2022-12-22T10:34:09.797Z,97684.22
2022-12-22T10:36:13.762Z,97678.38
2022-12-22T10:38:21.486Z,97676.16
2022-12-22T10:40:33.366Z,97684.09
2022-12-22T10:42:35.254Z,97677.50
2022-12-22T10:44:40.985Z,97674.72
2022-12-22T10:46:47.326Z,97670.31
2022-12-22T10:48:49.116Z,97668.41
2022-12-22T10:50:53.525Z,97666.75
2022-12-22T10:52:58.335Z,97658.78
2022-12-22T10:55:18.430Z,97650.88
2022-12-22T10:57:20.224Z,97656.56
2022-12-22T10:59:23.987Z,97656.28
2022-12-22T11:01:29.695Z,97662.25
2022-12-22T11:03:32.159Z,97646.09
2022-12-22T11:05:34.375Z,97648.03
2022-12-22T11:07:41.667Z,97651.88
2022-12-22T11:09:43.488Z,97663.09
2022-12-22T11:11:51.869Z,97648.56
2022-12-22T11:14:22.739Z,97654.63
2022-12-22T11:16:45.770Z,97643.16
2022-12-22T11:19:04.186Z,97657.69
2022-12-22T11:21:27.069Z,97646.16
2022-12-22T11:23:42.961Z,97646.16
2022-12-22T11:26:08.235Z,97635.22
2022-12-22T11:28:42.088Z,97639.06
2022-12-22T11:31:05.507Z,97634.41
2022-12-22T11:33:29.689Z,97637.16
2022-12-22T11:35:53.337Z,97625.63
2022-12-22T11:38:17.940Z,97629.19
2022-12-22T11:40:42.880Z,97634.16
2022-12-22T11:43:06.404Z,97634.16
2022-12-22T11:45:42.693Z,97647.03
2022-12-22T11:48:19.293Z,97619.63
2022-12-22T11:50:58.676Z,97643.78
2022-12-22T11:53:39.427Z,97632.50
2022-12-22T11:56:06.124Z,97636.38
2022-12-22T11:58:45.852Z,97643.56
2022-12-22T12:01:26.551Z,97642.75
2022-12-22T12:04:03.542Z,97635.94
2022-12-22T12:06:30.426Z,97635.94
2022-12-22T12:08:57.309Z,97649.94
2022-12-22T12:11:41.458Z,97632.16
2022-12-22T12:14:17.218Z,97643.69
2022-12-22T12:16:52.631Z,97633.88
2022-12-22T12:19:05.729Z,97644.81
2022-12-22T12:21:21.846Z,97637.72
2022-12-22T12:23:23.404Z,97640.13
2022-12-22T12:25:34.792Z,97640.44
2022-12-22T12:28:23.383Z,97647.66
2022-12-22T12:30:41.579Z,97647.66
2022-12-22T12:32:59.375Z,97647.66
2022-12-22T12:35:25.607Z,97647.91
2022-12-22T12:37:39.219Z,97646.59
2022-12-22T12:40:07.376Z,97649.31
2022-12-22T12:42:35.772Z,97650.44
2022-12-22T12:44:38.753Z,97649.63
2022-12-22T12:46:53.076Z,97647.16
2022-12-22T12:48:56.323Z,97659.25
2022-12-22T12:51:03.169Z,97665.56
2022-12-22T12:53:07.812Z,97663.41
2022-12-22T12:55:42.764Z,97666.97
2022-12-22T12:57:49.101Z,97662.59
2022-12-22T12:59:54.187Z,97678.19
2022-12-22T13:01:57.992Z,97684.81
2022-12-22T13:04:03.561Z,97683.47
2022-12-22T13:06:11.376Z,97687.00
2022-12-22T13:08:26.869Z,97697.44
2022-12-22T13:10:29.731Z,97705.13
2022-12-22T13:12:49.147Z,97708.19
2022-12-22T13:14:58.764Z,97713.41
2022-12-22T13:17:46.619Z,97711.78
2022-12-22T13:19:51.220Z,97711.00
2022-12-22T13:21:57.715Z,97713.41
2022-12-22T13:26:26.944Z,97733.69
2022-12-22T13:28:29.772Z,97718.38
2022-12-22T13:30:31.539Z,97725.78
2022-12-22T13:32:35.953Z,97728.22
2022-12-22T13:37:26.606Z,97739.47
2022-12-22T13:39:28.912Z,97749.34
2022-12-22T13:41:32.664Z,97738.06
2022-12-22T13:43:35.590Z,97740.00
2022-12-22T13:45:42.448Z,97749.59
2022-12-22T13:47:46.708Z,97748.78
2022-12-22T13:50:18.259Z,97755.38
2022-12-22T13:52:15.244Z,97761.69
2022-12-22T13:54:23.670Z,97767.16
2022-12-22T13:56:34.494Z,97771.00
2022-12-22T13:58:45.321Z,97776.47
2022-12-22T14:01:04.724Z,97771.81
2022-12-22T14:03:41.686Z,97787.13
2022-12-22T14:05:38.448Z,97786.88
2022-12-22T14:07:40.166Z,97798.66
2022-12-22T14:09:50.553Z,97804.13
2022-12-22T14:11:56.787Z,97806.88
2022-12-22T14:13:58.361Z,97810.69
2022-12-22T14:16:05.587Z,97800.84
2022-12-22T14:18:13.025Z,97813.44
2022-12-22T14:20:36.551Z,97820.00
2022-12-22T14:22:44.982Z,97812.91
2022-12-22T14:24:54.405Z,97831.78
2022-12-22T14:26:59.130Z,97830.44
2022-12-22T14:29:01.125Z,97834.81
2022-12-22T14:31:04.884Z,97832.09
2022-12-22T14:33:27.603Z,97835.91
2022-12-22T14:35:31.207Z,97840.81
2022-12-22T14:37:33.458Z,97837.56
2022-12-22T14:39:35.337Z,97842.22
2022-12-22T14:41:52.195Z,97837.03
2022-12-22T14:43:55.916Z,97846.06
2022-12-22T14:46:06.627Z,97839.22
2022-12-22T14:48:12.952Z,97846.34
2022-12-22T14:50:31.455Z,97850.50
2022-12-22T14:52:51.299Z,97856.47
2022-12-22T14:54:55.122Z,97858.41
2022-12-22T14:57:15.242Z,97863.88
2022-12-22T14:59:27.502Z,97864.47
2022-12-22T15:01:29.461Z,97868.84
2022-12-22T15:03:35.646Z,97871.56
2022-12-22T15:05:44.552Z,97883.34
2022-12-22T15:10:17.234Z,97879.78
2022-12-22T15:12:19.395Z,97882.53
2022-12-22T15:14:27.060Z,97905.00
2022-12-22T15:16:34.581Z,97901.75
2022-12-22T15:18:36.286Z,97906.13
2022-12-22T15:20:41.984Z,97910.25
2022-12-22T15:22:43.714Z,97914.09
2022-12-22T15:24:45.581Z,97918.75
2022-12-22T15:26:47.302Z,97922.31
2022-12-22T15:28:48.831Z,97929.44
2022-12-22T15:30:50.497Z,97929.13
2022-12-22T15:32:51.979Z,97931.66
2022-12-22T15:34:54.753Z,97946.13
2022-12-22T15:36:56.675Z,97950.00
2022-12-22T15:38:58.407Z,97939.31
2022-12-22T15:41:00.044Z,97949.72
2022-12-22T15:43:01.648Z,97962.34
2022-12-22T15:45:03.274Z,97951.66
2022-12-22T15:47:04.893Z,97958.25
2022-12-22T15:49:14.386Z,97964.81
2022-12-22T15:51:29.636Z,97958.81
2022-12-22T15:53:32.999Z,97962.38
2022-12-22T15:55:41.661Z,97968.94
2022-12-22T15:57:44.426Z,97974.41
2022-12-22T15:59:49.021Z,97967.31
2022-12-22T16:01:58.425Z,97972.53
2022-12-22T16:04:02.656Z,97968.97
2022-12-22T16:06:08.615Z,97977.19
2022-12-22T16:08:18.333Z,97974.75
2022-12-22T16:10:26.975Z,97973.91
2022-12-22T16:12:30.772Z,97981.31
2022-12-22T16:14:39.280Z,97985.44
2022-12-22T16:16:47.208Z,97983.22
2022-12-22T16:18:48.806Z,97987.06
2022-12-22T16:20:51.041Z,97991.72
2022-12-22T16:22:53.398Z,97989.28
2022-12-22T16:24:55.456Z,97986.81
2022-12-22T16:27:01.808Z,97986.00
2022-12-22T16:29:19.291Z,97989.31
2022-12-22T16:31:24.128Z,97990.41
2022-12-22T16:33:25.734Z,97990.41
2022-12-22T16:35:29.985Z,97984.09
2022-12-22T16:37:31.997Z,97985.22
2022-12-22T16:39:33.751Z,97986.84
2022-12-22T16:41:35.750Z,97984.41
2022-12-22T16:46:04.140Z,98000.28
2022-12-22T16:48:12.214Z,97994.00
2022-12-22T16:50:20.171Z,98006.56
2022-12-22T16:52:31.043Z,97997.28
2022-12-22T16:54:32.943Z,98001.69
2022-12-22T16:56:35.458Z,98010.16
2022-12-22T16:58:36.962Z,98011.53
2022-12-22T17:00:43.814Z,98009.34
2022-12-22T17:02:49.241Z,98012.91
2022-12-22T17:04:52.388Z,98005.00
2022-12-22T17:06:57.082Z,98010.47
2022-12-22T17:09:04.551Z,98010.47
2022-12-22T17:11:11.118Z,98000.09
2022-12-22T17:13:13.422Z,98003.91
2022-12-22T17:15:21.432Z,98014.06
2022-12-22T17:17:28.870Z,98010.75
2022-12-22T17:19:33.719Z,98013.78
2022-12-22T17:21:35.451Z,98009.69
2022-12-22T17:23:48.263Z,98003.38
2022-12-22T17:25:49.930Z,98015.69
2022-12-22T17:27:51.793Z,98009.94
2022-12-22T17:29:54.562Z,98010.47
2022-12-22T17:31:59.642Z,98014.31
2022-12-22T17:34:01.406Z,98009.94
2022-12-22T17:36:03.267Z,98013.25
2022-12-22T17:38:05.158Z,98002.28
2022-12-22T17:40:34.529Z,98006.94
2022-12-22T17:42:36.414Z,98004.75
2022-12-22T17:44:38.005Z,98010.50
2022-12-22T17:46:39.620Z,98001.75
2022-12-22T17:48:41.205Z,97990.00
2022-12-22T17:50:46.159Z,97996.00
2022-12-22T17:52:48.428Z,97988.06
2022-12-22T17:54:52.619Z,97981.22
2022-12-22T17:57:03.342Z,97984.50
2022-12-22T17:59:05.423Z,97984.75
2022-12-22T18:01:18.236Z,97981.25
2022-12-22T18:03:20.338Z,97976.06
2022-12-22T18:05:27.969Z,97972.22
2022-12-22T18:07:29.685Z,97974.16
2022-12-22T18:09:31.757Z,97977.72
2022-12-22T18:11:33.933Z,97971.09
2022-12-22T18:13:35.534Z,97976.31
2022-12-22T18:15:37.369Z,97978.78
2022-12-22T18:17:38.864Z,97968.38
2022-12-22T18:19:40.436Z,97977.41
2022-12-22T18:21:43.781Z,97974.94
2022-12-22T18:23:50.673Z,97971.66
2022-12-22T18:25:52.676Z,97966.19
2022-12-22T18:27:54.308Z,97965.63
2022-12-22T18:29:56.162Z,97964.00
2022-12-22T18:31:57.837Z,97967.81
2022-12-22T18:34:01.342Z,97965.34
2022-12-22T18:36:03.148Z,97963.72
2022-12-22T18:38:16.428Z,97962.88
2022-12-22T18:40:35.907Z,97958.53
2022-12-22T18:42:37.547Z,97953.31
2022-12-22T18:44:39.155Z,97959.63
2022-12-22T18:46:40.960Z,97970.31
2022-12-22T18:48:43.843Z,97963.44
2022-12-22T18:50:45.708Z,97956.31
2022-12-22T18:52:49.040Z,97951.69
2022-12-22T18:54:51.135Z,97952.25
2022-12-22T18:56:52.954Z,97951.16
2022-12-22T18:58:54.568Z,97946.47
2022-12-22T19:00:56.382Z,97942.09
2022-12-22T19:03:00.098Z,97939.63
2022-12-22T19:05:02.997Z,97946.47
2022-12-22T19:07:04.538Z,97930.09
2022-12-22T19:09:13.819Z,97929.28
2022-12-22T19:11:18.133Z,97931.19
2022-12-22T19:13:40.910Z,97927.91
2022-12-22T19:15:43.423Z,97922.66
2022-12-22T19:17:45.226Z,97927.06
2022-12-22T19:19:47.606Z,97927.88
2022-12-22T19:21:50.390Z,97919.66
2022-12-22T19:23:52.052Z,97920.75
2022-12-22T19:26:08.385Z,97919.06
2022-12-22T19:28:25.665Z,97912.81
2022-12-22T19:30:29.485Z,97910.88
2022-12-22T19:32:42.009Z,97918.28
2022-12-22T19:34:45.061Z,97904.59
2022-12-22T19:36:51.048Z,97906.50
2022-12-22T19:39:05.395Z,97901.03
2022-12-22T19:41:26.486Z,97899.41
2022-12-22T19:43:31.434Z,97892.56
2022-12-22T19:45:35.586Z,97901.91
2022-12-22T19:47:40.422Z,97899.94
2022-12-22T19:49:42.914Z,97890.63
2022-12-22T19:51:49.321Z,97893.31
2022-12-22T19:53:50.926Z,97899.09
2022-12-22T19:55:56.502Z,97896.91
2022-12-22T19:58:04.775Z,97896.09
2022-12-22T20:00:14.871Z,97889.28
2022-12-22T20:02:31.835Z,97880.22
2022-12-22T20:04:33.620Z,97876.97
2022-12-22T20:06:35.128Z,97874.75
2022-12-22T20:08:37.115Z,97870.13
2022-12-22T20:10:39.837Z,97873.94
2022-12-22T20:12:45.289Z,97865.53
2022-12-22T20:14:46.951Z,97869.38
2022-12-22T20:16:48.822Z,97867.72
2022-12-22T20:18:50.436Z,97868.28
2022-12-22T20:21:03.105Z,97862.81
2022-12-22T20:23:10.374Z,97861.69
2022-12-22T20:25:25.410Z,97854.03
2022-12-22T20:27:32.815Z,97854.59
2022-12-22T20:29:34.297Z,97845.84
2022-12-22T20:31:36.003Z,97848.28
2022-12-22T20:33:37.656Z,97849.69
2022-12-22T20:35:43.605Z,97845.31
2022-12-22T20:37:45.450Z,97841.47
2022-12-22T20:39:47.021Z,97841.75
2022-12-22T20:41:53.481Z,97836.25
2022-12-22T20:43:55.655Z,97841.44
2022-12-22T20:46:03.726Z,97839.56
2022-12-22T20:48:05.363Z,97841.47
2022-12-22T20:50:23.529Z,97848.63
2022-12-22T20:52:25.943Z,97836.34
2022-12-22T20:54:27.460Z,97838.25
2022-12-22T20:56:38.319Z,97833.03
2022-12-22T20:58:39.887Z,97838.50
2022-12-22T21:00:42.813Z,97839.06
2022-12-22T21:02:44.962Z,97831.41
2022-12-22T21:04:46.788Z,97833.88
2022-12-22T21:06:53.728Z,97833.03
2022-12-22T21:08:58.239Z,97835.50
2022-12-22T21:11:00.799Z,97822.38
2022-12-22T21:13:02.372Z,97819.63
2022-12-22T21:15:05.489Z,97819.09
2022-12-22T21:17:16.850Z,97810.38
2022-12-22T21:19:21.596Z,97813.06
2022-12-22T21:21:23.452Z,97809.75
2022-12-22T21:23:27.470Z,97807.00
2022-12-22T21:25:29.518Z,97808.13
2022-12-22T21:27:31.123Z,97801.53
2022-12-22T21:29:36.231Z,97796.66
2022-12-22T21:31:37.797Z,97801.56
2022-12-22T21:33:39.264Z,97791.75
2022-12-22T21:35:44.121Z,97791.50
2022-12-22T21:37:50.680Z,97798.88
2022-12-22T21:39:52.252Z,97790.69
2022-12-22T21:42:00.138Z,97794.56
2022-12-22T21:44:01.595Z,97785.22
2022-12-22T21:46:03.395Z,97785.75
2022-12-22T21:48:05.692Z,97780.03
2022-12-22T21:50:11.315Z,97780.28
2022-12-22T21:52:13.263Z,97780.06
2022-12-22T21:54:15.658Z,97773.75
2022-12-22T21:56:21.396Z,97774.59
2022-12-22T21:58:23.249Z,97768.28
2022-12-22T22:00:31.137Z,97765.53
2022-12-22T22:02:32.984Z,97762.31
2022-12-22T22:04:34.614Z,97757.09
2022-12-22T22:06:36.255Z,97757.94
2022-12-22T22:08:37.875Z,97753.88
2022-12-22T22:10:44.248Z,97750.31
2022-12-22T22:12:46.436Z,97747.06
2022-12-22T22:14:48.780Z,97752.53
2022-12-22T22:16:51.036Z,97746.22
2022-12-22T22:18:54.323Z,97742.41
2022-12-22T22:20:55.968Z,97741.59
2022-12-22T22:22:58.974Z,97741.59
2022-12-22T22:25:00.470Z,97737.50
2022-12-22T22:27:02.224Z,97738.31
2022-12-22T22:29:04.136Z,97738.88
2022-12-22T22:31:10.462Z,97745.19
2022-12-22T22:33:12.161Z,97741.88
2022-12-22T22:35:14.333Z,97731.47
2022-12-22T22:37:15.814Z,97724.94
2022-12-22T22:39:17.469Z,97724.13
2022-12-22T22:41:18.975Z,97717.84
2022-12-22T22:43:20.753Z,97711.84
2022-12-22T22:45:25.827Z,97715.41
2022-12-22T22:47:27.355Z,97704.72
2022-12-22T22:49:29.090Z,97707.75
2022-12-22T22:51:31.191Z,97705.03
2022-12-22T22:53:34.976Z,97704.47
2022-12-22T22:55:36.599Z,97704.47
2022-12-22T22:57:38.910Z,97708.00
2022-12-22T22:59:40.703Z,97697.31
2022-12-22T23:01:42.210Z,97694.56
2022-12-22T23:03:44.195Z,97692.94
2022-12-22T23:05:45.902Z,97697.31
2022-12-22T23:07:47.646Z,97696.78
2022-12-22T23:09:49.311Z,97691.84
2022-12-22T23:11:52.636Z,97695.41
2022-12-22T23:13:54.837Z,97694.06
2022-12-22T23:16:01.563Z,97683.34
2022-12-22T23:18:05.845Z,97685.81
2022-12-22T23:20:08.384Z,97683.31
2022-12-22T23:22:09.932Z,97677.56
2022-12-22T23:24:12.131Z,97671.81
2022-12-22T23:26:16.903Z,97672.63
2022-12-22T23:28:18.974Z,97670.97
2022-12-22T23:30:20.476Z,97668.53
2022-12-22T23:32:23.616Z,97663.38
2022-12-22T23:34:25.259Z,97659.81
2022-12-22T23:36:27.035Z,97657.59
2022-12-22T23:38:28.875Z,97666.09
2022-12-22T23:40:51.455Z,97646.66
2022-12-22T23:42:56.744Z,97654.63
2022-12-22T23:45:02.158Z,97639.91
2022-12-22T23:47:06.569Z,97640.47
2022-12-22T23:49:15.570Z,97638.56
2022-12-22T23:51:19.378Z,97636.13
2022-12-22T23:53:21.429Z,97631.44
2022-12-22T23:55:23.384Z,97632.84
2022-12-22T23:57:24.979Z,97631.75
2022-12-22T23:59:26.787Z,97629.56
